Startpagina
METAR-TAF:

METAR-TAF

Vliegvelden :

Koeweit, Koeweit

breedte: 29-13N, lengte: 047-59E, hoogte: 55 m

Actueel weer

Dit bericht is 37 minuten geleden gemaakt, om 03:00 UTC
Wind 6 kt uit het zuidoosten
Temperatuur 17°C
Vochtigheid 82%
Druk 1014 hPa
Zicht 10 km of meer
geen wolken onder 1500 m en geen cumulonimbus

METAR: OKBK 190300Z 14006KT CAVOK 17/14 Q1014 NOSIG

Tijdstip: 06:37 (03:37 UTC)

Verwachting

Dit bericht is 4 uur en het 52 minuten geleden gemaakt, om 22:45 UTC
Verwachting geldig van 19 om 00 UTC tot 20 om 06 UTC
Wind 12 kt uit het zuidzuidoosten met uitschieters tot 25 kt
Zicht: 7000 m
Weinig wolken op 4000 ft
Gebroken wolken op 8000 ft
Tijdelijke
van 19 om 09 UTC tot 19 om 15 UTC
Zicht: 3000 m
Stuifstof

TAF: OKBK 182245Z 1900/2006 15012G25KT 7000 FEW040 BKN080 TEMPO 1909/1915 3000 BLDU

Waarnemingen en weersverwachtingen van meer dan 4000 vliegvelden (METAR en TAF).

De beschikbare stations zijn de gele en rode punten op de kaart.

Ga met uw muis naar het station om de naam te zien.

Klik dan om waarnemingen en weersverwachtingen te zien.

kaart wijzigen: klik op de groene knoppen met een zwart kruis om in te zoomen, op de groene knop met een streepje om uit te zoomen of op de groene pijlen voor aangrenzende kaarten.


METAR-TAF: